Terminal Aerodrome Forecast
Issued by NWS

Home | Current Version | Previous Version | Text Only | Print | Product List | Glossary On
Versions: 1 2 3 4 5 6 7 8 9 10 11 12 13 14
000
FTUS45 KABQ 030326 AAA
TAFFMN
TAF AMD
KFMN 030326Z 0303/0324 29011KT P6SM VCSH BKN080
      TEMPO 0303/0306 VRB15G25KT -TSRA BKN050CB
     FM031100 08006KT P6SM SCT150
     FM032000 29012G19KT P6SM FEW100=

USA.gov is the U.S. government's official web portal to all federal, state and local government web resources and services.